createdAt,value
2022-12-03T00:00:12.798Z,100137.13
2022-12-03T00:02:41.233Z,100142.03
2022-12-03T00:05:09.951Z,100147.06
2022-12-03T00:07:37.665Z,100144.66
2022-12-03T00:10:06.628Z,100143.22
2022-12-03T00:12:34.222Z,100148.09
2022-12-03T00:15:03.259Z,100143.09
2022-12-03T00:17:30.816Z,100132.91
2022-12-03T00:19:58.406Z,100139.66
2022-12-03T00:22:26.028Z,100137.44
2022-12-03T00:24:53.910Z,100133.41
2022-12-03T00:27:21.989Z,100139.44
2022-12-03T00:29:51.111Z,100128.56
2022-12-03T00:32:20.021Z,100128.38
2022-12-03T00:34:47.698Z,100137.97
2022-12-03T00:37:15.400Z,100125.91
2022-12-03T00:39:43.070Z,100131.25
2022-12-03T00:42:10.713Z,100134.59
2022-12-03T00:44:38.374Z,100134.44
2022-12-03T00:47:06.099Z,100140.50
2022-12-03T00:49:35.071Z,100138.09
2022-12-03T00:52:02.979Z,100132.53
2022-12-03T00:54:32.204Z,100133.22
2022-12-03T00:57:00.221Z,100134.28
2022-12-03T00:59:27.797Z,100135.47
2022-12-03T01:01:55.554Z,100127.59
2022-12-03T01:04:23.262Z,100131.75
2022-12-03T01:06:52.257Z,100134.44
2022-12-03T01:09:19.938Z,100127.59
2022-12-03T01:11:47.544Z,100132.88
2022-12-03T01:14:18.214Z,100138.81
2022-12-03T01:16:46.227Z,100140.41
2022-12-03T01:19:16.334Z,100137.97
2022-12-03T01:21:45.302Z,100134.78
2022-12-03T01:24:14.598Z,100138.09
2022-12-03T01:26:42.421Z,100146.00
2022-12-03T01:29:10.113Z,100145.28
2022-12-03T01:31:55.487Z,100146.00
2022-12-03T01:34:23.098Z,100146.88
2022-12-03T01:36:52.313Z,100140.03
2022-12-03T01:39:21.360Z,100140.91
2022-12-03T01:41:50.143Z,100147.75
2022-12-03T01:44:21.386Z,100147.59
2022-12-03T01:46:51.600Z,100148.28
2022-12-03T01:49:22.790Z,100149.72
2022-12-03T01:51:53.302Z,100151.13
2022-12-03T01:54:27.160Z,100147.09
2022-12-03T01:56:56.242Z,100150.44
2022-12-03T01:59:33.663Z,100159.75
2022-12-03T02:02:06.527Z,100153.06
2022-12-03T02:04:34.348Z,100156.59
2022-12-03T02:07:20.861Z,100155.78
2022-12-03T02:09:49.833Z,100159.44
2022-12-03T02:12:22.442Z,100156.19
2022-12-03T02:14:50.814Z,100154.25
2022-12-03T02:17:18.972Z,100160.25
2022-12-03T02:19:47.519Z,100152.50
2022-12-03T02:22:25.768Z,100151.81
2022-12-03T02:25:00.023Z,100150.84
2022-12-03T02:27:29.694Z,100151.63
2022-12-03T02:29:57.551Z,100144.78
2022-12-03T02:32:25.327Z,100147.34
2022-12-03T02:34:53.239Z,100144.78
2022-12-03T02:37:24.168Z,100144.97
2022-12-03T02:39:55.185Z,100141.63
2022-12-03T02:42:39.268Z,100143.19
2022-12-03T02:45:13.284Z,100148.28
2022-12-03T02:47:43.925Z,100148.13
2022-12-03T02:50:15.121Z,100141.31
2022-12-03T02:52:46.034Z,100143.03
2022-12-03T02:55:16.072Z,100143.84
2022-12-03T02:57:46.077Z,100136.03
2022-12-03T03:00:17.420Z,100131.63
2022-12-03T03:02:47.123Z,100132.34
2022-12-03T03:05:16.628Z,100137.44
2022-12-03T03:07:44.515Z,100144.28
2022-12-03T03:10:15.986Z,100148.59
2022-12-03T03:12:43.908Z,100140.06
2022-12-03T03:15:12.700Z,100140.19
2022-12-03T03:17:42.097Z,100151.31
2022-12-03T03:20:11.392Z,100146.41
2022-12-03T03:22:41.417Z,100148.13
2022-12-03T03:25:11.725Z,100148.13
2022-12-03T03:27:40.817Z,100142.19
2022-12-03T03:30:09.938Z,100139.88
2022-12-03T03:32:39.318Z,100143.19
2022-12-03T03:35:09.777Z,100135.47
2022-12-03T03:37:37.640Z,100138.09
2022-12-03T03:40:06.285Z,100139.88
2022-12-03T03:42:34.264Z,100140.75
2022-12-03T03:45:02.023Z,100137.22
2022-12-03T03:47:29.669Z,100139.69
2022-12-03T03:49:57.608Z,100141.31
2022-12-03T03:52:26.872Z,100138.66
2022-12-03T03:54:54.736Z,100137.22
2022-12-03T03:57:22.650Z,100136.34
2022-12-03T03:59:50.387Z,100133.00
2022-12-03T04:02:20.504Z,100133.88
2022-12-03T04:04:49.548Z,100132.31
2022-12-03T04:07:17.592Z,100131.25
2022-12-03T04:09:46.571Z,100127.91
2022-12-03T04:12:31.875Z,100126.16
2022-12-03T04:14:59.548Z,100123.00
2022-12-03T04:17:27.591Z,100123.00
2022-12-03T04:19:55.306Z,100115.03
2022-12-03T04:22:42.691Z,100122.81
2022-12-03T04:25:29.493Z,100117.03
2022-12-03T04:28:14.671Z,100123.88
2022-12-03T04:30:42.348Z,100121.41
2022-12-03T04:33:27.399Z,100118.78
2022-12-03T04:35:55.136Z,100127.28
2022-12-03T04:38:22.815Z,100131.59
2022-12-03T04:41:04.784Z,100128.22
2022-12-03T04:43:33.870Z,100125.69
2022-12-03T04:46:03.556Z,100119.66
2022-12-03T04:48:31.218Z,100130.97
2022-12-03T04:50:58.796Z,100122.19
2022-12-03T04:53:26.378Z,100123.00
2022-12-03T04:55:55.417Z,100124.91
2022-12-03T04:58:23.294Z,100126.50
2022-12-03T05:00:51.278Z,100126.50
2022-12-03T05:03:18.931Z,100122.94
2022-12-03T05:05:47.029Z,100129.50
2022-12-03T05:08:14.713Z,100119.31
2022-12-03T05:10:42.382Z,100121.88
2022-12-03T05:13:11.333Z,100118.44
2022-12-03T05:15:38.966Z,100119.31
2022-12-03T05:18:06.597Z,100113.44
2022-12-03T05:20:42.007Z,100114.41
2022-12-03T05:23:10.323Z,100109.47
2022-12-03T05:25:38.006Z,100114.63
2022-12-03T05:28:06.661Z,100107.72
2022-12-03T05:30:36.119Z,100101.69
2022-12-03T05:33:03.973Z,100107.22
2022-12-03T05:35:31.624Z,100106.03
2022-12-03T05:37:59.318Z,100099.94
2022-12-03T05:40:26.977Z,100087.94
2022-12-03T05:42:53.696Z,100094.63
2022-12-03T05:45:22.305Z,100087.06
2022-12-03T05:47:51.331Z,100088.44
2022-12-03T05:50:19.652Z,100082.03
2022-12-03T05:52:47.444Z,100081.53
2022-12-03T05:55:15.332Z,100092.25
2022-12-03T05:57:43.109Z,100094.38
2022-12-03T06:00:15.364Z,100109.47
2022-12-03T06:02:44.972Z,100108.34
2022-12-03T06:05:14.865Z,100102.28
2022-12-03T06:07:42.903Z,100101.97
2022-12-03T06:10:13.306Z,100102.66
2022-12-03T06:12:41.272Z,100104.06
2022-12-03T06:15:10.412Z,100097.22
2022-12-03T06:17:38.214Z,100108.06
2022-12-03T06:20:07.104Z,100100.91
2022-12-03T06:22:36.051Z,100093.00
2022-12-03T06:25:07.101Z,100096.16
2022-12-03T06:27:35.165Z,100100.91
2022-12-03T06:30:02.863Z,100099.00
2022-12-03T06:32:30.481Z,100105.81
2022-12-03T06:34:58.093Z,100094.53
2022-12-03T06:37:25.714Z,100105.56
2022-12-03T06:39:54.666Z,100102.63
2022-12-03T06:42:22.421Z,100106.66
2022-12-03T06:44:50.001Z,100114.59
2022-12-03T06:47:17.603Z,100117.56
2022-12-03T06:49:45.271Z,100114.50
2022-12-03T06:52:12.886Z,100125.91
2022-12-03T06:54:40.438Z,100123.97
2022-12-03T06:57:09.385Z,100114.22
2022-12-03T06:59:37.513Z,100110.53
2022-12-03T07:02:05.318Z,100118.78
2022-12-03T07:04:33.003Z,100112.63
2022-12-03T07:07:00.602Z,100119.22
2022-12-03T07:09:28.265Z,100115.59
2022-12-03T07:11:55.876Z,100117.88
2022-12-03T07:14:24.882Z,100122.06
2022-12-03T07:16:52.616Z,100121.00
2022-12-03T07:19:20.255Z,100118.75
2022-12-03T07:21:48.114Z,100120.41
2022-12-03T07:24:15.750Z,100114.72
2022-12-03T07:26:43.347Z,100118.22
2022-12-03T07:29:10.985Z,100121.03
2022-12-03T07:31:40.167Z,100120.09
2022-12-03T07:34:08.045Z,100111.16
2022-12-03T07:36:35.728Z,100106.34
2022-12-03T07:39:03.355Z,100106.00
2022-12-03T07:41:30.994Z,100106.19
2022-12-03T07:43:58.646Z,100103.53
2022-12-03T07:46:26.520Z,100111.06
2022-12-03T07:48:55.525Z,100103.63
2022-12-03T07:51:26.182Z,100105.47
2022-12-03T07:53:58.346Z,100108.88
2022-12-03T07:56:26.108Z,100113.16
2022-12-03T07:58:53.670Z,100120.91
2022-12-03T08:01:21.394Z,100119.31
2022-12-03T08:03:49.121Z,100125.63
2022-12-03T08:06:18.086Z,100128.53
2022-12-03T08:08:45.736Z,100134.75
2022-12-03T08:11:15.370Z,100132.28
2022-12-03T08:13:43.170Z,100126.19
2022-12-03T08:16:17.215Z,100119.25
2022-12-03T08:18:45.951Z,100114.31
2022-12-03T08:21:15.215Z,100121.53
2022-12-03T08:23:44.675Z,100117.56
2022-12-03T08:26:20.526Z,100121.06
2022-12-03T08:28:48.121Z,100115.50
2022-12-03T08:31:19.912Z,100114.00
2022-12-03T08:33:49.342Z,100113.31
2022-12-03T08:36:22.563Z,100108.09
2022-12-03T08:38:53.518Z,100112.50
2022-12-03T08:41:36.187Z,100109.94
2022-12-03T08:44:16.160Z,100111.13
2022-12-03T08:46:43.742Z,100101.69
2022-12-03T08:49:12.098Z,100098.25
2022-12-03T08:51:39.755Z,100108.22
2022-12-03T08:54:15.341Z,100104.94
2022-12-03T08:56:43.831Z,100100.06
2022-12-03T08:59:27.498Z,100103.44
2022-12-03T09:01:55.614Z,100097.38
2022-12-03T09:04:26.152Z,100094.84
2022-12-03T09:06:54.874Z,100100.38
2022-12-03T09:09:24.311Z,100091.47
2022-12-03T09:11:53.759Z,100103.25
2022-12-03T09:14:22.649Z,100105.81
2022-12-03T09:16:51.872Z,100109.41
2022-12-03T09:19:19.566Z,100102.72
2022-12-03T09:21:47.106Z,100103.59
2022-12-03T09:24:14.871Z,100107.09
2022-12-03T09:26:43.847Z,100109.00
2022-12-03T09:29:12.758Z,100103.91
2022-12-03T09:31:40.921Z,100108.19
2022-12-03T09:34:09.155Z,100105.94
2022-12-03T09:36:37.862Z,100100.16
2022-12-03T09:39:05.947Z,100102.72
2022-12-03T09:41:33.628Z,100109.81
2022-12-03T09:44:04.968Z,100093.06
2022-12-03T09:46:35.118Z,100105.91
2022-12-03T09:49:03.710Z,100101.94
2022-12-03T09:51:33.778Z,100108.00
2022-12-03T09:54:02.295Z,100102.44
2022-12-03T09:56:30.002Z,100098.78
2022-12-03T09:58:57.621Z,100096.88
2022-12-03T10:01:30.133Z,100094.97
2022-12-03T10:03:58.597Z,100086.09
2022-12-03T10:06:26.365Z,100085.00
2022-12-03T10:08:55.802Z,100074.91
2022-12-03T10:11:25.726Z,100072.97
2022-12-03T10:13:55.051Z,100064.34
2022-12-03T10:16:22.898Z,100062.31
2022-12-03T10:18:54.424Z,100058.81
2022-12-03T10:21:26.483Z,100054.28
2022-12-03T10:24:19.145Z,100054.28
2022-12-03T10:26:48.598Z,100058.53
2022-12-03T10:29:19.884Z,100052.25
2022-12-03T10:31:55.991Z,100064.22
2022-12-03T10:34:31.493Z,100055.59
2022-12-03T10:37:11.474Z,100056.63
2022-12-03T10:39:56.201Z,100055.81
2022-12-03T10:42:25.547Z,100049.03
2022-12-03T10:45:09.202Z,100055.06
2022-12-03T10:47:36.863Z,100046.72
2022-12-03T10:50:14.995Z,100049.69
2022-12-03T10:52:42.627Z,100039.81
2022-12-03T10:55:11.664Z,100040.13
2022-12-03T10:57:45.082Z,100036.41
2022-12-03T11:00:17.543Z,100024.44
2022-12-03T11:02:46.785Z,100027.75
2022-12-03T11:05:22.186Z,100018.88
2022-12-03T11:07:50.152Z,100011.56
2022-12-03T11:10:19.830Z,100008.94
2022-12-03T11:13:26.721Z,100006.31
2022-12-03T11:15:54.424Z,100002.06
2022-12-03T11:19:02.146Z,100002.81
2022-12-03T11:21:31.527Z,99999.44
2022-12-03T11:24:18.536Z,99994.47
2022-12-03T11:27:21.833Z,99993.63
2022-12-03T11:29:55.401Z,99995.34
2022-12-03T11:33:08.299Z,99991.31
2022-12-03T11:35:39.236Z,99990.50
2022-12-03T11:38:50.756Z,99983.09
2022-12-03T11:41:31.840Z,99983.53
2022-12-03T11:44:30.512Z,99977.16
2022-12-03T11:47:00.468Z,99977.84
2022-12-03T11:49:52.076Z,99978.59
2022-12-03T11:52:23.766Z,99982.31
2022-12-03T11:54:55.385Z,99980.50
2022-12-03T11:57:28.389Z,99974.56
2022-12-03T12:00:07.055Z,99963.34
2022-12-03T12:02:39.625Z,99968.31
2022-12-03T12:05:26.057Z,99959.19
2022-12-03T12:07:54.748Z,99955.75
2022-12-03T12:10:43.544Z,99953.03
2022-12-03T12:13:52.086Z,99950.41
2022-12-03T12:16:50.285Z,99946.66
2022-12-03T12:19:39.633Z,99936.53
2022-12-03T12:22:15.424Z,99941.38
2022-12-03T12:24:52.199Z,99949.47
2022-12-03T12:27:22.861Z,99939.88
2022-12-03T12:29:55.704Z,99934.06
2022-12-03T12:32:27.220Z,99937.31
2022-12-03T12:34:57.797Z,99927.78
2022-12-03T12:37:33.438Z,99927.56
2022-12-03T12:40:03.444Z,99929.78
2022-12-03T12:42:35.694Z,99923.03
2022-12-03T12:45:14.359Z,99915.22
2022-12-03T12:47:47.898Z,99930.94
2022-12-03T12:50:17.252Z,99925.69
2022-12-03T12:52:52.166Z,99917.91
2022-12-03T12:55:21.154Z,99919.38
2022-12-03T12:57:50.450Z,99924.63
2022-12-03T13:00:20.792Z,99925.44
2022-12-03T13:02:53.145Z,99928.66
2022-12-03T13:05:20.961Z,99917.50
2022-12-03T13:07:49.087Z,99923.00
2022-12-03T13:10:36.561Z,99917.97
2022-12-03T13:13:21.576Z,99912.53
2022-12-03T13:15:52.726Z,99911.50
2022-12-03T13:18:32.106Z,99915.81
2022-12-03T13:21:00.401Z,99906.75
2022-12-03T13:23:33.288Z,99898.28
2022-12-03T13:26:18.707Z,99900.75
2022-12-03T13:28:56.349Z,99908.22
2022-12-03T13:31:27.175Z,99906.16
2022-12-03T13:33:55.439Z,99897.31
2022-12-03T13:36:28.252Z,99894.47
2022-12-03T13:38:55.927Z,99891.78
2022-12-03T13:41:41.217Z,99897.03
2022-12-03T13:44:18.928Z,99899.66
2022-12-03T13:46:46.890Z,99900.78
2022-12-03T13:49:20.771Z,99903.41
2022-12-03T13:51:49.325Z,99905.06
2022-12-03T13:54:21.079Z,99903.88
2022-12-03T13:56:49.171Z,99893.78
2022-12-03T13:59:22.956Z,99902.41
2022-12-03T14:01:53.868Z,99897.84
2022-12-03T14:04:21.582Z,99907.25
2022-12-03T14:06:49.234Z,99906.25
2022-12-03T14:09:16.848Z,99908.00
2022-12-03T14:12:01.890Z,99900.34
2022-12-03T14:14:30.980Z,99908.13
2022-12-03T14:17:00.179Z,99903.75
2022-12-03T14:19:28.047Z,99908.78
2022-12-03T14:21:55.626Z,99914.38
2022-12-03T14:24:23.267Z,99914.66
2022-12-03T14:26:50.878Z,99921.22
2022-12-03T14:29:18.466Z,99919.38
2022-12-03T14:31:47.432Z,99924.59
2022-12-03T14:34:15.136Z,99931.00
2022-12-03T14:36:43.052Z,99929.75
2022-12-03T14:39:10.781Z,99934.84
2022-12-03T14:41:58.039Z,99930.56
2022-12-03T14:44:25.627Z,99932.16
2022-12-03T14:46:57.394Z,99937.25
2022-12-03T14:49:25.337Z,99932.88
2022-12-03T14:51:52.966Z,99927.00
2022-12-03T14:54:20.575Z,99927.78
2022-12-03T14:56:48.424Z,99925.88
2022-12-03T14:59:16.114Z,99923.97
2022-12-03T15:01:43.753Z,99925.94
2022-12-03T15:04:12.806Z,99924.31
2022-12-03T15:06:40.529Z,99923.97
2022-12-03T15:09:08.480Z,99918.97
2022-12-03T15:11:37.561Z,99921.44
2022-12-03T15:14:08.209Z,99914.66
2022-12-03T15:16:35.985Z,99924.56
2022-12-03T15:19:03.635Z,99927.03
2022-12-03T15:21:34.795Z,99925.06
2022-12-03T15:24:02.749Z,99926.47
2022-12-03T15:26:30.610Z,99928.38
2022-12-03T15:28:58.567Z,99928.50
2022-12-03T15:31:26.294Z,99925.00
2022-12-03T15:33:53.974Z,99933.00
2022-12-03T15:36:21.637Z,99931.84
2022-12-03T15:38:50.670Z,99922.22
2022-12-03T15:41:28.910Z,99925.25
2022-12-03T15:43:58.557Z,99921.72
2022-12-03T15:46:27.845Z,99916.69
2022-12-03T15:48:55.903Z,99915.50
2022-12-03T15:51:23.650Z,99923.94
2022-12-03T15:53:52.883Z,99921.00
2022-12-03T15:56:20.537Z,99927.03
2022-12-03T15:58:48.147Z,99918.63
2022-12-03T16:01:17.939Z,99922.63
2022-12-03T16:03:45.640Z,99922.44
2022-12-03T16:06:14.558Z,99923.63
2022-12-03T16:08:42.132Z,99924.34
2022-12-03T16:11:11.132Z,99924.34
2022-12-03T16:13:38.776Z,99926.84
2022-12-03T16:16:06.642Z,99923.78
2022-12-03T16:18:34.409Z,99921.16
2022-12-03T16:21:02.017Z,99921.88
2022-12-03T16:23:29.637Z,99921.94
2022-12-03T16:25:57.272Z,99928.00
2022-12-03T16:28:26.240Z,99921.00
2022-12-03T16:30:54.045Z,99919.25
2022-12-03T16:33:27.325Z,99917.53
2022-12-03T16:35:55.629Z,99911.84
2022-12-03T16:38:23.346Z,99914.09
2022-12-03T16:40:50.940Z,99912.25
2022-12-03T16:43:18.575Z,99910.50
2022-12-03T16:46:09.830Z,99908.13
2022-12-03T16:48:37.679Z,99908.59
2022-12-03T16:51:05.567Z,99891.59
2022-12-03T16:53:33.322Z,99892.38
2022-12-03T16:56:01.272Z,99894.06
2022-12-03T16:58:29.356Z,99891.53
2022-12-03T17:00:58.318Z,99890.66
2022-12-03T17:03:32.099Z,99892.38
2022-12-03T17:06:01.417Z,99888.88
2022-12-03T17:08:29.262Z,99894.94
2022-12-03T17:10:56.972Z,99901.78
2022-12-03T17:13:24.881Z,99896.84
2022-12-03T17:15:52.593Z,99889.28
2022-12-03T17:18:22.827Z,99889.97
2022-12-03T17:20:50.490Z,99892.47
2022-12-03T17:23:18.586Z,99881.41
2022-12-03T17:25:46.241Z,99888.09
2022-12-03T17:28:13.850Z,99885.34
2022-12-03T17:30:41.442Z,99884.94
2022-12-03T17:33:09.059Z,99888.69
2022-12-03T17:35:38.329Z,99893.84
2022-12-03T17:38:05.952Z,99887.91
2022-12-03T17:40:33.568Z,99887.81
2022-12-03T17:43:01.196Z,99897.72
2022-12-03T17:45:28.768Z,99892.13
2022-12-03T17:47:56.390Z,99886.09
2022-12-03T17:50:25.689Z,99891.28
2022-12-03T17:52:54.642Z,99895.75
2022-12-03T17:55:31.969Z,99887.94
2022-12-03T17:58:03.803Z,99893.72
2022-12-03T18:00:31.623Z,99889.38
2022-12-03T18:02:59.334Z,99895.91
2022-12-03T18:05:26.934Z,99889.19
2022-12-03T18:07:55.960Z,99894.16
2022-12-03T18:10:23.848Z,99875.47
2022-12-03T18:12:51.456Z,99878.72
2022-12-03T18:15:19.064Z,99883.81
2022-12-03T18:17:46.668Z,99888.66
2022-12-03T18:20:14.630Z,99885.25
2022-12-03T18:22:42.440Z,99888.13
2022-12-03T18:25:11.997Z,99871.28
2022-12-03T18:27:39.627Z,99877.94
2022-12-03T18:30:08.592Z,99872.84
2022-12-03T18:32:36.167Z,99872.84
2022-12-03T18:35:04.073Z,99871.09
2022-12-03T18:37:33.201Z,99882.56
2022-12-03T18:40:02.041Z,99880.78
2022-12-03T18:42:31.432Z,99882.72
2022-12-03T18:44:59.315Z,99882.41
2022-12-03T18:47:29.342Z,99884.00
2022-12-03T18:49:57.814Z,99870.47
2022-12-03T18:52:25.871Z,99878.81
2022-12-03T18:54:54.371Z,99872.72
2022-12-03T18:57:21.975Z,99875.09
2022-12-03T18:59:51.011Z,99876.75
2022-12-03T19:05:10.446Z,99873.97
2022-12-03T19:07:38.259Z,99870.31
2022-12-03T19:10:07.007Z,99868.50
2022-12-03T19:12:34.615Z,99869.38
2022-12-03T19:15:03.936Z,99856.53
2022-12-03T19:17:31.883Z,99863.41
2022-12-03T19:19:59.466Z,99861.00
2022-12-03T19:22:29.083Z,99854.44
2022-12-03T19:24:56.913Z,99856.34
2022-12-03T19:27:24.594Z,99854.56
2022-12-03T19:29:52.517Z,99858.78
2022-12-03T19:32:21.559Z,99861.44
2022-12-03T19:34:49.171Z,99859.81
2022-12-03T19:37:16.788Z,99858.88
2022-12-03T19:39:44.382Z,99852.75
2022-12-03T19:42:11.973Z,99856.34
2022-12-03T19:44:40.028Z,99859.50
2022-12-03T19:47:07.639Z,99857.75
2022-12-03T19:49:36.645Z,99862.84
2022-12-03T19:52:04.541Z,99860.22
2022-12-03T19:54:32.413Z,99865.41
2022-12-03T19:57:00.385Z,99866.16
2022-12-03T19:59:28.007Z,99868.09
2022-12-03T20:01:55.680Z,99863.72
2022-12-03T20:04:23.478Z,99859.50
2022-12-03T20:06:52.426Z,99862.13
2022-12-03T20:09:21.364Z,99861.09
2022-12-03T20:11:51.645Z,99851.25
2022-12-03T20:14:19.434Z,99866.34
2022-12-03T20:16:47.605Z,99854.56
2022-12-03T20:19:17.294Z,99855.22
2022-12-03T20:21:45.519Z,99854.66
2022-12-03T20:24:17.839Z,99860.44
2022-12-03T20:26:45.626Z,99858.72
2022-12-03T20:29:13.310Z,99862.38
2022-12-03T20:31:41.082Z,99869.25
2022-12-03T20:34:08.696Z,99867.44
2022-12-03T20:36:36.948Z,99863.78
2022-12-03T20:39:07.035Z,99867.81
2022-12-03T20:41:37.511Z,99864.34
2022-12-03T20:44:07.296Z,99853.44
2022-12-03T20:46:35.214Z,99851.69
2022-12-03T20:49:03.152Z,99845.13
2022-12-03T20:51:32.161Z,99842.56
2022-12-03T20:54:01.433Z,99843.59
2022-12-03T20:56:31.203Z,99840.09
2022-12-03T20:59:01.792Z,99838.13
2022-12-03T21:01:29.574Z,99838.75
2022-12-03T21:03:58.409Z,99843.28
2022-12-03T21:06:29.729Z,99843.28
2022-12-03T21:08:58.922Z,99839.16
2022-12-03T21:11:29.454Z,99835.75
2022-12-03T21:13:58.200Z,99833.28
2022-12-03T21:16:59.120Z,99828.88
2022-12-03T21:19:17.967Z,99825.97
2022-12-03T21:21:45.534Z,99825.78
2022-12-03T21:24:14.242Z,99825.47
2022-12-03T21:26:42.352Z,99824.22
2022-12-03T21:29:09.993Z,99816.72
2022-12-03T21:31:39.786Z,99811.97
2022-12-03T21:34:08.407Z,99811.81
2022-12-03T21:36:36.017Z,99815.28
2022-12-03T21:39:04.204Z,99817.91
2022-12-03T21:41:31.881Z,99818.88
2022-12-03T21:43:59.627Z,99827.56
2022-12-03T21:47:10.312Z,99822.47
2022-12-03T21:49:19.243Z,99819.13
2022-12-03T21:51:46.919Z,99815.78
2022-12-03T21:54:14.595Z,99817.59
2022-12-03T21:56:42.243Z,99821.25
2022-12-03T21:59:09.889Z,99816.09
2022-12-03T22:01:38.013Z,99816.53
2022-12-03T22:04:07.198Z,99822.16
2022-12-03T22:06:36.166Z,99828.00
2022-12-03T22:09:03.815Z,99812.50
2022-12-03T22:11:31.476Z,99808.16
2022-12-03T22:13:59.110Z,99802.13
2022-12-03T22:16:26.771Z,99809.09
2022-12-03T22:18:55.338Z,99820.88
2022-12-03T22:21:24.453Z,99818.88
2022-12-03T22:23:53.435Z,99819.63
2022-12-03T22:26:21.059Z,99816.28
2022-12-03T22:28:50.674Z,99811.19
2022-12-03T22:31:19.218Z,99807.69
2022-12-03T22:33:48.287Z,99807.53
2022-12-03T22:36:21.074Z,99810.69
2022-12-03T22:38:49.592Z,99813.25
2022-12-03T22:41:19.072Z,99804.81
2022-12-03T22:43:47.337Z,99799.72
2022-12-03T22:46:15.934Z,99798.94
2022-12-03T22:48:45.239Z,99792.28
2022-12-03T22:51:17.277Z,99790.53
2022-12-03T22:53:46.872Z,99784.53
2022-12-03T22:56:15.977Z,99788.94
2022-12-03T22:58:44.976Z,99784.16
2022-12-03T23:01:22.219Z,99783.03
2022-12-03T23:03:50.172Z,99787.00
2022-12-03T23:06:18.537Z,99776.69
2022-12-03T23:08:46.308Z,99783.34
2022-12-03T23:11:14.777Z,99769.28
2022-12-03T23:13:42.422Z,99774.63
2022-12-03T23:16:15.348Z,99771.06
2022-12-03T23:18:42.981Z,99773.50
2022-12-03T23:21:10.841Z,99782.25
2022-12-03T23:23:38.402Z,99777.97
2022-12-03T23:26:08.239Z,99794.88
2022-12-03T23:28:38.156Z,99788.50
2022-12-03T23:31:06.859Z,99794.41
2022-12-03T23:33:38.566Z,99794.50
2022-12-03T23:36:06.784Z,99787.56
2022-12-03T23:38:34.575Z,99783.06
2022-12-03T23:41:04.652Z,99786.38
2022-12-03T23:43:32.268Z,99795.13
2022-12-03T23:46:04.108Z,99785.09
2022-12-03T23:48:31.849Z,99787.56
2022-12-03T23:51:00.916Z,99791.22
2022-12-03T23:53:28.555Z,99791.78
2022-12-03T23:55:56.168Z,99784.47
2022-12-03T23:58:23.768Z,99777.03
